Terminal Aerodrome Forecast
Issued by NWS Bismarck, ND

Home | Current Version | Previous Version | Graphics & Text | Print | Product List | Glossary On
Versions: 1 2 3 4 5 6 7 8 9 10 11 12 13 14 15 16 17 18 19 20 21
000
FTUS43 KBIS 251900 AAA
TAFISN
TAF AMD
KISN 251915Z 2519/2618 13013KT P6SM OVC015
     FM252100 14015G20KT P6SM BKN020
     FM260100 16008KT 4SM -SHRA OVC015
     FM260600 VRB05KT P6SM OVC015=

USA.gov is the U.S. government's official web portal to all federal, state and local government web resources and services.